BYU2
, Provo
Last Weather Update:08/30/2011 11:00:00 PM
Date
ETo
ETc
Rain
Irrigation
Req
Temp
Max
Temp
Min
Temp
Avg
Avg RH
Avg Wind
Avg Solar
inches
inches
incehs
inches
F
F
F
%
%
watts/m2
07/01/2011 0.21" 0.17" 0.00" 0.17" 87.0° 59.0° 72.8° 51.7% 2.1 MPH 306.8w/m2
07/02/2011 0.33" 0.27" 0.00" 0.27" 96.3° 61.2° 78.0° 41.9% 1.9 MPH 341.1w/m2
07/03/2011 0.25" 0.20" 0.00" 0.20" 97.2° 62.7° 82.7° 33.6% 2.4 MPH 355.6w/m2
07/04/2011 0.18" 0.14" 0.00" 0.14" 87.4° 72.1° 80.1° 39.7% 3.2 MPH 220.2w/m2
07/05/2011 0.22" 0.18" 0.00" 0.18" 87.9° 65.2° 76.0° 58.3% 3.2 MPH 274.8w/m2
07/06/2011 0.24" 0.20" 0.01" 0.19" 87.4° 61.2° 74.6° 66.4% 2.5 MPH 346.6w/m2
07/07/2011 0.19" 0.16" 0.06" 0.10" 86.3° 65.5° 74.9° 61.6% 2.8 MPH 251.3w/m2
07/08/2011 0.18" 0.15" 0.00" 0.15" 82.2° 63.6° 72.3° 68.7% 2.5 MPH 253.6w/m2
07/09/2011 0.26" 0.21" 0.00" 0.21" 89.7° 60.1° 75.0° 52.2% 2.8 MPH 350.3w/m2
07/10/2011 0.25" 0.21" 0.00" 0.21" 87.7° 66.6° 75.1° 53.6% 3.9 MPH 319.0w/m2
07/11/2011 0.24" 0.20" 0.00" 0.20" 88.3° 63.6° 74.6° 54.5% 2.7 MPH 301.2w/m2
07/12/2011 0.20" 0.17" 0.00" 0.17" 87.9° 67.0° 76.0° 49.4% 2.8 MPH 251.3w/m2
07/13/2011 0.22" 0.19" 0.10" 0.09" 86.9° 64.5° 74.4° 49.7% 2.7 MPH 285.7w/m2
07/14/2011 0.26" 0.22" 0.00" 0.22" 88.0° 57.0° 73.6° 45.1% 2.8 MPH 366.2w/m2
07/15/2011 0.25" 0.22" 0.00" 0.22" 89.4° 57.8° 74.3° 32.6% 2.2 MPH 366.7w/m2
07/16/2011 0.27" 0.23" 0.00" 0.23" 92.9° 57.7° 76.3° 30.7% 2.3 MPH 369.4w/m2
07/17/2011 0.20" 0.17" 0.00" 0.17" 93.0° 60.5° 77.8° 35.7% 2.4 MPH 249.6w/m2
07/18/2011 0.20" 0.17" 0.02" 0.15" 90.5° 72.6° 81.0° 45.7% 2.9 MPH 230.8w/m2
07/19/2011 0.20" 0.17" 0.10" 0.07" 91.6° 71.4° 78.8° 51.7% 3.1 MPH 236.3w/m2
07/20/2011 0.26" 0.22" 0.00" 0.22" 90.3° 60.9° 76.0° 48.2% 2.4 MPH 352.7w/m2
07/21/2011 0.27" 0.23" 0.00" 0.23" 92.7° 60.2° 77.5° 33.1% 2.5 MPH 368.0w/m2
07/22/2011 0.31" 0.27" 0.00" 0.27" 92.6° 58.6° 77.4° 27.8% 3.1 MPH 378.5w/m2
07/23/2011 0.24" 0.21" 0.00" 0.21" 92.2° 57.1° 75.2° 37.7% 1.8 MPH 350.4w/m2
07/24/2011 0.25" 0.22" 0.00" 0.22" 97.4° 60.4° 79.2° 39.2% 2.0 MPH 354.7w/m2
07/25/2011 0.22" 0.20" 0.06" 0.14" 94.2° 64.2° 77.7° 45.0% 2.8 MPH 281.3w/m2
07/26/2011 0.20" 0.18" 0.57" -0.32" 86.7° 64.3° 74.7° 60.1% 3.2 MPH 253.1w/m2
07/27/2011 0.17" 0.15" 0.57" -0.42" 86.5° 63.0° 71.6° 61.1% 2.6 MPH 219.0w/m2
07/28/2011 0.22" 0.20" 0.00" 0.20" 91.1° 60.9° 75.6° 49.1% 1.6 MPH 313.7w/m2
07/29/2011 0.23" 0.21" 0.00" 0.21" 95.1° 63.2° 78.7° 44.9% 1.6 MPH 316.9w/m2
07/30/2011 0.21" 0.18" 0.00" 0.18" 93.3° 69.6° 79.2° 48.0% 2.4 MPH 255.6w/m2
07/31/2011 0.15" 0.13" 0.00" 0.13" 88.6° 70.1° 76.6° 58.9% 1.9 MPH 186.9w/m2
Totals: 7.07" 6.02" 1.49" 4.60" 97.4° 57.0° 76.4° 47.6% 2.6 MPH 300.2w/m2